createdAt,value
2019-04-26T00:00:24.067Z,7.07
2019-04-26T00:01:24.077Z,7.20
2019-04-26T00:02:24.086Z,6.88
2019-04-26T00:03:24.096Z,6.89
2019-04-26T00:04:24.114Z,6.88
2019-04-26T00:05:34.023Z,6.81
2019-04-26T00:06:24.142Z,6.66
2019-04-26T00:07:24.145Z,6.59
2019-04-26T00:08:24.157Z,6.64
2019-04-26T00:09:24.167Z,6.48
2019-04-26T00:10:24.182Z,6.56
2019-04-26T00:11:24.197Z,6.55
2019-04-26T00:12:24.206Z,6.43
2019-04-26T00:13:24.214Z,6.43
2019-04-26T00:14:24.226Z,6.37
2019-04-26T00:15:24.237Z,6.37
2019-04-26T00:16:24.255Z,6.40
2019-04-26T00:17:24.260Z,6.43
2019-04-26T00:18:24.270Z,6.33
2019-04-26T00:19:24.288Z,6.41
2019-04-26T00:20:24.297Z,6.48
2019-04-26T00:21:24.308Z,6.43
2019-04-26T00:22:24.324Z,6.54
2019-04-26T00:23:24.331Z,6.49
2019-04-26T00:24:24.347Z,6.40
2019-04-26T00:25:24.356Z,6.38
2019-04-26T00:26:24.368Z,6.33
2019-04-26T00:27:24.375Z,6.41
2019-04-26T00:28:24.385Z,6.27
2019-04-26T00:29:24.398Z,6.15
2019-04-26T00:30:24.413Z,6.08
2019-04-26T00:31:24.421Z,5.97
2019-04-26T00:32:24.433Z,5.90
2019-04-26T00:33:24.448Z,5.83
2019-04-26T00:34:24.457Z,5.78
2019-04-26T00:35:24.463Z,5.75
2019-04-26T00:36:24.477Z,5.67
2019-04-26T00:37:24.488Z,5.63
2019-04-26T00:38:24.497Z,5.64
2019-04-26T00:39:25.095Z,5.64
2019-04-26T00:40:24.518Z,5.53
2019-04-26T00:41:24.530Z,5.46
2019-04-26T00:42:24.543Z,5.38
2019-04-26T00:43:24.552Z,5.46
2019-04-26T00:44:24.565Z,5.38
2019-04-26T00:45:24.574Z,5.31
2019-04-26T00:46:24.583Z,5.33
2019-04-26T00:47:24.594Z,5.39
2019-04-26T00:48:24.606Z,5.39
2019-04-26T00:49:24.617Z,5.39
2019-04-26T00:50:24.632Z,5.38
2019-04-26T00:51:24.638Z,5.45
2019-04-26T00:52:24.653Z,5.40
2019-04-26T00:53:24.660Z,5.39
2019-04-26T00:54:24.669Z,5.49
2019-04-26T00:55:24.680Z,5.49
2019-04-26T00:56:24.713Z,5.57
2019-04-26T00:57:24.704Z,5.57
2019-04-26T00:58:24.713Z,5.60
2019-04-26T00:59:24.767Z,5.60
2019-04-26T01:00:24.735Z,5.63
2019-04-26T01:01:24.955Z,5.58
2019-04-26T01:02:25.197Z,5.64
2019-04-26T01:03:25.030Z,5.53
2019-04-26T01:04:25.066Z,5.48
2019-04-26T01:05:25.266Z,5.51
2019-04-26T01:06:25.104Z,5.53
2019-04-26T01:07:25.329Z,5.42
2019-04-26T01:08:25.481Z,5.39
2019-04-26T01:09:25.677Z,5.31
2019-04-26T01:10:25.808Z,5.35
2019-04-26T01:11:25.955Z,5.33
2019-04-26T01:12:25.995Z,5.36
2019-04-26T01:13:24.880Z,5.27
2019-04-26T01:14:24.884Z,5.22
2019-04-26T01:15:24.897Z,5.22
2019-04-26T01:16:24.905Z,5.20
2019-04-26T01:17:24.917Z,5.22
2019-04-26T01:18:24.924Z,5.15
2019-04-26T01:19:24.935Z,5.25
2019-04-26T01:20:24.945Z,5.30
2019-04-26T01:21:24.956Z,5.36
2019-04-26T01:22:25.337Z,5.28
2019-04-26T01:23:25.153Z,5.42
2019-04-26T01:24:25.375Z,5.43
2019-04-26T01:25:25.320Z,5.31
2019-04-26T01:26:25.221Z,5.31
2019-04-26T01:27:25.528Z,5.35
2019-04-26T01:28:25.833Z,5.35
2019-04-26T01:29:25.938Z,5.28
2019-04-26T01:30:25.860Z,5.13
2019-04-26T01:31:25.973Z,5.09
2019-04-26T01:32:26.105Z,5.02
2019-04-26T01:33:26.062Z,5.00
2019-04-26T01:34:26.139Z,4.91
2019-04-26T01:35:26.095Z,4.89
2019-04-26T01:36:25.113Z,4.67
2019-04-26T01:37:25.121Z,4.66
2019-04-26T01:38:25.683Z,4.80
2019-04-26T01:39:25.812Z,4.52
2019-04-26T01:40:26.063Z,4.66
2019-04-26T01:41:26.128Z,4.62
2019-04-26T01:42:26.304Z,4.75
2019-04-26T01:43:25.181Z,4.72
2019-04-26T01:44:25.195Z,4.75
2019-04-26T01:45:25.815Z,4.70
2019-04-26T01:46:25.217Z,4.70
2019-04-26T01:47:26.191Z,4.70
2019-04-26T01:48:25.235Z,4.67
2019-04-26T01:49:26.178Z,4.67
2019-04-26T01:50:25.336Z,4.65
2019-04-26T01:51:25.277Z,4.65
2019-04-26T01:52:25.672Z,4.63
2019-04-26T01:53:25.281Z,4.55
2019-04-26T01:54:25.794Z,4.34
2019-04-26T01:55:25.302Z,4.37
2019-04-26T01:56:25.315Z,4.23
2019-04-26T01:57:25.334Z,4.16
2019-04-26T01:58:25.337Z,4.14
2019-04-26T01:59:25.390Z,4.02
2019-04-26T02:00:25.620Z,4.02
2019-04-26T02:01:25.426Z,3.87
2019-04-26T02:02:25.662Z,3.75
2019-04-26T02:03:25.631Z,3.79
2019-04-26T02:04:25.754Z,3.72
2019-04-26T02:05:25.886Z,3.86
2019-04-26T02:06:32.030Z,3.91
2019-04-26T02:07:26.101Z,3.80
2019-04-26T02:08:26.249Z,3.87
2019-04-26T02:09:26.337Z,3.90
2019-04-26T02:10:26.574Z,3.93
2019-04-26T02:11:25.458Z,3.93
2019-04-26T02:12:25.469Z,3.66
2019-04-26T02:13:25.477Z,3.72
2019-04-26T02:14:25.486Z,3.72
2019-04-26T02:15:25.633Z,3.60
2019-04-26T02:16:25.503Z,3.66
2019-04-26T02:17:25.509Z,3.66
2019-04-26T02:18:25.576Z,3.57
2019-04-26T02:19:25.798Z,3.60
2019-04-26T02:20:25.634Z,3.57
2019-04-26T02:21:26.425Z,3.57
2019-04-26T02:22:25.918Z,3.65
2019-04-26T02:23:26.340Z,3.58
2019-04-26T02:24:26.377Z,3.69
2019-04-26T02:25:26.024Z,3.62
2019-04-26T02:26:26.578Z,3.52
2019-04-26T02:27:26.245Z,3.51
2019-04-26T02:28:26.698Z,3.55
2019-04-26T02:29:26.752Z,3.42
2019-04-26T02:30:27.080Z,3.55
2019-04-26T02:31:27.304Z,3.54
2019-04-26T02:32:27.222Z,3.57
2019-04-26T02:33:27.493Z,3.42
2019-04-26T02:34:27.963Z,3.47
2019-04-26T02:35:27.079Z,3.45
2019-04-26T02:36:44.983Z,3.40
2019-04-26T02:37:27.012Z,3.23
2019-04-26T02:38:27.367Z,3.28
2019-04-26T02:39:27.478Z,3.24
2019-04-26T02:40:27.549Z,3.13
2019-04-26T02:41:27.464Z,3.10
2019-04-26T02:42:26.562Z,3.13
2019-04-26T02:43:26.421Z,3.08
2019-04-26T02:44:26.694Z,3.02
2019-04-26T02:45:26.942Z,3.03
2019-04-26T02:46:28.445Z,3.06
2019-04-26T02:47:26.948Z,3.08
2019-04-26T02:48:27.099Z,2.95
2019-04-26T02:49:27.471Z,2.92
2019-04-26T02:50:28.308Z,2.89
2019-04-26T02:51:28.465Z,2.87
2019-04-26T02:52:25.834Z,2.96
2019-04-26T02:53:25.841Z,3.03
2019-04-26T02:54:25.925Z,3.02
2019-04-26T02:55:25.860Z,3.06
2019-04-26T02:56:25.873Z,3.03
2019-04-26T02:57:25.890Z,3.02
2019-04-26T02:58:25.895Z,3.02
2019-04-26T02:59:25.899Z,3.03
2019-04-26T03:00:25.898Z,2.93
2019-04-26T03:01:25.910Z,2.92
2019-04-26T03:02:25.919Z,2.72
2019-04-26T03:03:25.931Z,2.49
2019-04-26T03:04:25.934Z,2.59
2019-04-26T03:05:25.942Z,2.49
2019-04-26T03:06:25.949Z,2.30
2019-04-26T03:07:25.961Z,2.17
2019-04-26T03:08:25.977Z,2.03
2019-04-26T03:09:25.979Z,2.07
2019-04-26T03:10:25.985Z,2.06
2019-04-26T03:11:26.005Z,1.99
2019-04-26T03:12:26.004Z,2.05
2019-04-26T03:13:26.015Z,2.07
2019-04-26T03:14:26.023Z,2.09
2019-04-26T03:15:26.032Z,2.02
2019-04-26T03:16:26.035Z,1.90
2019-04-26T03:17:26.045Z,1.95
2019-04-26T03:18:26.054Z,1.84
2019-04-26T03:19:26.063Z,1.93
2019-04-26T03:20:26.068Z,1.86
2019-04-26T03:21:26.076Z,1.91
2019-04-26T03:22:26.088Z,1.88
2019-04-26T03:23:41.328Z,1.87
2019-04-26T03:24:26.128Z,2.03
2019-04-26T03:25:26.113Z,2.03
2019-04-26T03:26:26.118Z,2.10
2019-04-26T03:27:26.141Z,2.12
2019-04-26T03:28:26.135Z,2.09
2019-04-26T03:29:26.141Z,2.18
2019-04-26T03:30:26.165Z,2.12
2019-04-26T03:31:26.169Z,2.17
2019-04-26T03:32:26.177Z,2.09
2019-04-26T03:33:26.296Z,2.16
2019-04-26T03:34:26.179Z,2.14
2019-04-26T03:35:26.210Z,2.00
2019-04-26T03:36:26.198Z,2.12
2019-04-26T03:37:26.206Z,2.06
2019-04-26T03:38:26.212Z,2.07
2019-04-26T03:39:26.224Z,2.06
2019-04-26T03:40:26.227Z,1.98
2019-04-26T03:41:26.237Z,2.05
2019-04-26T03:42:26.249Z,1.93
2019-04-26T03:43:26.252Z,2.00
2019-04-26T03:44:26.283Z,1.84
2019-04-26T03:45:26.270Z,1.84
2019-04-26T03:46:26.276Z,1.91
2019-04-26T03:47:26.284Z,1.77
2019-04-26T03:48:26.293Z,1.83
2019-04-26T03:49:26.305Z,1.91
2019-04-26T03:50:26.306Z,1.88
2019-04-26T03:51:26.315Z,1.83
2019-04-26T03:52:26.326Z,1.84
2019-04-26T03:53:26.332Z,1.87
2019-04-26T03:54:26.338Z,1.84
2019-04-26T03:55:26.350Z,1.95
2019-04-26T03:56:26.357Z,1.84
2019-04-26T03:57:26.366Z,2.02
2019-04-26T03:58:26.368Z,1.84
2019-04-26T03:59:26.376Z,2.00
2019-04-26T04:00:26.382Z,1.91
2019-04-26T04:01:26.389Z,1.84
2019-04-26T04:02:26.401Z,1.83
2019-04-26T04:03:27.253Z,1.87
2019-04-26T04:04:26.415Z,1.88
2019-04-26T04:05:26.419Z,1.88
2019-04-26T04:06:26.433Z,1.86
2019-04-26T04:07:36.726Z,1.84
2019-04-26T04:08:26.446Z,1.60
2019-04-26T04:09:26.448Z,1.66
2019-04-26T04:10:26.457Z,1.47
2019-04-26T04:11:26.523Z,1.47
2019-04-26T04:12:26.629Z,1.41
2019-04-26T04:13:26.482Z,1.44
2019-04-26T04:14:26.643Z,1.52
2019-04-26T04:15:26.505Z,1.36
2019-04-26T04:16:26.505Z,1.34
2019-04-26T04:17:26.515Z,1.41
2019-04-26T04:18:26.514Z,1.40
2019-04-26T04:19:26.523Z,1.47
2019-04-26T04:20:26.539Z,1.45
2019-04-26T04:21:26.542Z,1.50
2019-04-26T04:22:26.546Z,1.47
2019-04-26T04:23:26.556Z,1.40
2019-04-26T04:24:26.561Z,1.30
2019-04-26T04:25:26.568Z,1.33
2019-04-26T04:26:26.576Z,1.37
2019-04-26T04:27:26.602Z,1.29
2019-04-26T04:28:26.592Z,1.34
2019-04-26T04:29:40.094Z,1.34
2019-04-26T04:30:26.604Z,1.23
2019-04-26T04:31:26.616Z,1.29
2019-04-26T04:32:26.638Z,1.29
2019-04-26T04:33:26.634Z,1.29
2019-04-26T04:34:26.633Z,1.37
2019-04-26T04:35:26.640Z,1.26
2019-04-26T04:36:26.663Z,1.12
2019-04-26T04:37:26.651Z,1.02
2019-04-26T04:38:26.663Z,1.06
2019-04-26T04:39:26.668Z,1.12
2019-04-26T04:40:26.676Z,1.22
2019-04-26T04:41:26.687Z,1.24
2019-04-26T04:42:26.686Z,1.18
2019-04-26T04:43:26.892Z,1.30
2019-04-26T04:44:26.703Z,1.27
2019-04-26T04:45:26.710Z,1.24
2019-04-26T04:46:26.722Z,1.24
2019-04-26T04:47:30.808Z,1.23
2019-04-26T04:48:26.730Z,1.22
2019-04-26T04:49:26.747Z,1.33
2019-04-26T04:50:26.757Z,1.33
2019-04-26T04:51:26.751Z,1.30
2019-04-26T04:52:26.761Z,1.33
2019-04-26T04:53:26.769Z,1.29
2019-04-26T04:54:26.776Z,1.24
2019-04-26T04:55:26.778Z,1.32
2019-04-26T04:56:26.788Z,1.40
2019-04-26T04:57:26.799Z,1.33
2019-04-26T04:58:26.801Z,1.41
2019-04-26T04:59:26.810Z,1.51
2019-04-26T05:00:26.813Z,1.50
2019-04-26T05:01:26.821Z,1.60
2019-04-26T05:02:26.833Z,1.62
2019-04-26T05:03:26.836Z,1.68
2019-04-26T05:04:26.845Z,1.66
2019-04-26T05:05:26.856Z,1.72
2019-04-26T05:06:26.860Z,1.79
2019-04-26T05:07:26.867Z,1.83
2019-04-26T05:08:26.872Z,1.90
2019-04-26T05:09:26.880Z,1.81
2019-04-26T05:10:26.888Z,1.84
2019-04-26T05:11:26.891Z,1.90
2019-04-26T05:12:26.906Z,1.84
2019-04-26T05:13:26.911Z,1.79
2019-04-26T05:14:26.916Z,1.68
2019-04-26T05:15:26.924Z,1.79
2019-04-26T05:16:26.933Z,1.84
2019-04-26T05:17:26.936Z,1.80
2019-04-26T05:18:26.943Z,1.83
2019-04-26T05:19:26.957Z,1.99
2019-04-26T05:20:26.961Z,1.84
2019-04-26T05:21:26.967Z,1.84
2019-04-26T05:22:26.972Z,1.83
2019-04-26T05:23:26.979Z,1.77
2019-04-26T05:24:26.990Z,1.84
2019-04-26T05:25:26.994Z,1.79
2019-04-26T05:26:27.004Z,1.77
2019-04-26T05:27:27.026Z,1.76
2019-04-26T05:28:27.017Z,1.73
2019-04-26T05:29:27.024Z,1.83
2019-04-26T05:30:27.032Z,1.81
2019-04-26T05:31:27.042Z,1.77
2019-04-26T05:32:27.051Z,1.79
2019-04-26T05:33:27.054Z,1.69
2019-04-26T05:34:27.064Z,1.72
2019-04-26T05:35:27.071Z,1.68
2019-04-26T05:36:27.078Z,1.72
2019-04-26T05:37:27.088Z,1.76
2019-04-26T05:38:27.093Z,1.68
2019-04-26T05:39:27.098Z,1.72
2019-04-26T05:40:27.105Z,1.69
2019-04-26T05:41:27.113Z,1.59
2019-04-26T05:42:27.124Z,1.58
2019-04-26T05:43:27.130Z,1.62
2019-04-26T05:44:27.138Z,1.55
2019-04-26T05:45:27.145Z,1.62
2019-04-26T05:46:27.148Z,1.54
2019-04-26T05:47:27.160Z,1.60
2019-04-26T05:48:27.164Z,1.62
2019-04-26T05:49:27.171Z,1.68
2019-04-26T05:50:27.177Z,1.62
2019-04-26T05:51:27.187Z,1.51
2019-04-26T05:52:27.194Z,1.48
2019-04-26T05:53:27.205Z,1.40
2019-04-26T05:54:27.206Z,1.45
2019-04-26T05:55:27.216Z,1.37
2019-04-26T05:56:27.224Z,1.42
2019-04-26T05:57:27.236Z,1.37
2019-04-26T05:58:27.237Z,1.40
2019-04-26T05:59:27.248Z,1.48
2019-04-26T06:00:27.253Z,1.47
2019-04-26T06:01:27.260Z,1.42
2019-04-26T06:02:27.269Z,1.51
2019-04-26T06:03:27.271Z,1.69
2019-04-26T06:04:27.279Z,1.54
2019-04-26T06:05:27.290Z,1.63
2019-04-26T06:06:27.301Z,1.66
2019-04-26T06:07:27.303Z,1.63
2019-04-26T06:08:31.521Z,1.59
2019-04-26T06:09:27.315Z,1.50
2019-04-26T06:10:27.324Z,1.41
2019-04-26T06:11:27.330Z,1.41
2019-04-26T06:12:27.344Z,1.22
2019-04-26T06:13:27.345Z,1.16
2019-04-26T06:14:27.356Z,1.18
2019-04-26T06:15:27.358Z,1.24
2019-04-26T06:16:27.365Z,1.29
2019-04-26T06:17:27.378Z,1.34
2019-04-26T06:18:27.384Z,1.37
2019-04-26T06:19:27.386Z,1.36
2019-04-26T06:20:27.394Z,1.36
2019-04-26T06:21:27.412Z,1.36
2019-04-26T06:22:27.407Z,1.33
2019-04-26T06:23:27.417Z,1.37
2019-04-26T06:24:27.425Z,1.37
2019-04-26T06:25:27.434Z,1.54
2019-04-26T06:26:27.441Z,1.44
2019-04-26T06:27:27.449Z,1.48
2019-04-26T06:28:27.454Z,1.52
2019-04-26T06:29:27.458Z,1.59
2019-04-26T06:30:27.464Z,1.66
2019-04-26T06:31:27.472Z,1.70
2019-04-26T06:32:27.577Z,1.76
2019-04-26T06:33:27.489Z,1.81
2019-04-26T06:34:27.497Z,1.80
2019-04-26T06:35:27.504Z,1.88
2019-04-26T06:36:27.510Z,1.83
2019-04-26T06:37:27.515Z,1.87
2019-04-26T06:38:27.527Z,1.76
2019-04-26T06:39:27.538Z,1.84
2019-04-26T06:40:27.538Z,1.98
2019-04-26T06:41:27.551Z,1.99
2019-04-26T06:42:27.554Z,1.86
2019-04-26T06:43:27.559Z,1.86
2019-04-26T06:44:27.570Z,1.60
2019-04-26T06:45:27.580Z,1.41
2019-04-26T06:46:27.585Z,1.37
2019-04-26T06:47:27.593Z,1.48
2019-04-26T06:48:27.600Z,1.45
2019-04-26T06:49:27.607Z,1.52
2019-04-26T06:50:27.613Z,1.54
2019-04-26T06:51:27.623Z,1.47
2019-04-26T06:52:27.635Z,1.48
2019-04-26T06:53:27.647Z,1.45
2019-04-26T06:54:27.645Z,1.48
2019-04-26T06:55:27.654Z,1.37
2019-04-26T06:56:27.658Z,1.48
2019-04-26T06:57:27.663Z,1.41
2019-04-26T06:58:27.671Z,1.40
2019-04-26T06:59:36.163Z,1.41
2019-04-26T07:00:27.688Z,1.41
2019-04-26T07:01:27.692Z,1.50
2019-04-26T07:02:27.699Z,1.41
2019-04-26T07:03:27.710Z,1.51
2019-04-26T07:04:27.713Z,1.50
2019-04-26T07:05:27.729Z,1.36
2019-04-26T07:06:34.897Z,0.97
2019-04-26T07:07:27.738Z,0.65
2019-04-26T07:08:27.746Z,0.72
2019-04-26T07:09:27.750Z,0.61
2019-04-26T07:10:27.756Z,0.49
2019-04-26T07:11:27.766Z,0.61
2019-04-26T07:12:27.773Z,0.68
2019-04-26T07:13:27.782Z,0.87
2019-04-26T07:14:27.788Z,0.91
2019-04-26T07:15:28.933Z,0.83
2019-04-26T07:16:27.803Z,0.84
2019-04-26T07:17:27.813Z,0.73
2019-04-26T07:18:27.812Z,0.86
2019-04-26T07:19:27.820Z,0.91
2019-04-26T07:20:27.828Z,0.68
2019-04-26T07:21:27.835Z,0.60
2019-04-26T07:22:35.183Z,0.73
2019-04-26T07:23:27.847Z,0.76
2019-04-26T07:24:27.854Z,0.78
2019-04-26T07:25:27.869Z,0.84
2019-04-26T07:26:27.867Z,0.87
2019-04-26T07:27:27.875Z,0.80
2019-04-26T07:28:27.974Z,0.78
2019-04-26T07:29:27.891Z,0.70
2019-04-26T07:30:27.955Z,0.70
2019-04-26T07:31:27.902Z,0.62
2019-04-26T07:32:27.911Z,0.61
2019-04-26T07:33:27.919Z,0.55
2019-04-26T07:34:27.925Z,0.53
2019-04-26T07:35:27.932Z,0.41
2019-04-26T07:36:27.936Z,0.58
2019-04-26T07:37:27.979Z,0.50
2019-04-26T07:38:27.950Z,0.36
2019-04-26T07:39:27.954Z,0.02
2019-04-26T07:40:27.965Z,0.07
2019-04-26T07:41:27.969Z,-0.10
2019-04-26T07:42:27.973Z,-0.37
2019-04-26T07:43:27.980Z,-0.40
2019-04-26T07:44:27.987Z,-0.37
2019-04-26T07:45:27.993Z,-0.40
2019-04-26T07:46:28.002Z,-0.28
2019-04-26T07:47:28.005Z,-0.37
2019-04-26T07:48:28.016Z,-0.33
2019-04-26T07:49:28.018Z,-0.29
2019-04-26T07:50:28.029Z,-0.34
2019-04-26T07:51:28.029Z,-0.40
2019-04-26T07:52:28.038Z,-0.37
2019-04-26T07:53:28.046Z,-0.43
2019-04-26T07:54:28.050Z,-0.52
2019-04-26T07:55:28.057Z,-0.37
2019-04-26T07:56:28.065Z,-0.52
2019-04-26T07:57:28.069Z,-0.62
2019-04-26T07:58:28.075Z,-0.55
2019-04-26T07:59:28.081Z,-0.62
2019-04-26T08:00:28.087Z,-0.64
2019-04-26T08:01:28.094Z,-0.69
2019-04-26T08:02:28.097Z,-0.60
2019-04-26T08:03:28.101Z,-0.49
2019-04-26T08:04:29.542Z,-0.26
2019-04-26T08:05:28.112Z,-0.26
2019-04-26T08:06:28.116Z,-0.25
2019-04-26T08:07:28.121Z,-0.11
2019-04-26T08:08:28.132Z,-0.11
2019-04-26T08:09:28.134Z,-0.10
2019-04-26T08:10:28.142Z,0.04
2019-04-26T08:11:28.150Z,0.17
2019-04-26T08:12:28.151Z,0.15
2019-04-26T08:13:28.161Z,0.26
2019-04-26T08:14:28.163Z,0.35
2019-04-26T08:15:28.170Z,0.36
2019-04-26T08:16:28.180Z,0.23
2019-04-26T08:17:28.181Z,0.14
2019-04-26T08:18:28.189Z,-0.05
2019-04-26T08:19:28.196Z,-0.28
2019-04-26T08:20:31.894Z,-0.36
2019-04-26T08:21:31.707Z,-0.31
2019-04-26T08:22:28.710Z,-0.34
2019-04-26T08:23:41.181Z,-0.34
2019-04-26T08:24:28.626Z,-0.40
2019-04-26T08:25:28.236Z,-0.23
2019-04-26T08:26:28.231Z,-0.28
2019-04-26T08:27:28.241Z,-0.21
2019-04-26T08:28:28.249Z,-0.19
2019-04-26T08:29:29.836Z,-0.16
2019-04-26T08:30:28.255Z,-0.05
2019-04-26T08:31:28.261Z,-0.08
2019-04-26T08:32:31.958Z,-0.03
2019-04-26T08:33:28.282Z,0.08
2019-04-26T08:34:31.750Z,0.00
2019-04-26T08:35:28.283Z,0.17
2019-04-26T08:36:28.730Z,0.24
2019-04-26T08:37:28.300Z,0.35
2019-04-26T08:38:28.302Z,0.49
2019-04-26T08:39:44.309Z,0.51
2019-04-26T08:40:31.294Z,0.69
2019-04-26T08:41:28.318Z,0.79
2019-04-26T08:42:28.325Z,0.78
2019-04-26T08:43:30.915Z,0.78
2019-04-26T08:44:28.343Z,0.65
2019-04-26T08:45:28.346Z,0.68
2019-04-26T08:46:28.445Z,0.65
2019-04-26T08:47:28.353Z,0.61
2019-04-26T08:48:29.334Z,0.57
2019-04-26T08:49:28.420Z,0.72
2019-04-26T08:50:28.378Z,0.58
2019-04-26T08:51:28.381Z,0.58
2019-04-26T08:52:28.383Z,0.49
2019-04-26T08:53:28.406Z,0.26
2019-04-26T08:54:28.399Z,0.33
2019-04-26T08:55:28.407Z,0.46
2019-04-26T08:56:28.412Z,0.49
2019-04-26T08:57:28.418Z,0.53
2019-04-26T08:58:28.423Z,0.38
2019-04-26T08:59:28.429Z,0.32
2019-04-26T09:00:28.436Z,0.55
2019-04-26T09:01:28.438Z,0.79
2019-04-26T09:02:28.447Z,1.06
2019-04-26T09:03:28.452Z,1.15
2019-04-26T09:04:28.454Z,1.29
2019-04-26T09:05:28.463Z,1.29
2019-04-26T09:06:28.471Z,1.22
2019-04-26T09:07:28.475Z,1.41
2019-04-26T09:08:28.507Z,1.30
2019-04-26T09:09:28.489Z,1.32
2019-04-26T09:10:28.494Z,1.40
2019-04-26T09:11:33.326Z,1.52
2019-04-26T09:12:28.501Z,1.47
2019-04-26T09:13:28.508Z,1.52
2019-04-26T09:14:28.518Z,1.52
2019-04-26T09:15:28.520Z,1.41
2019-04-26T09:16:28.529Z,1.54
2019-04-26T09:17:32.186Z,1.48
2019-04-26T09:18:28.542Z,1.55
2019-04-26T09:19:30.455Z,1.41
2019-04-26T09:20:29.952Z,1.45
2019-04-26T09:21:29.013Z,1.44
2019-04-26T09:22:28.563Z,1.45
2019-04-26T09:23:39.482Z,1.54
2019-04-26T09:24:28.580Z,1.51
2019-04-26T09:25:30.260Z,1.60
2019-04-26T09:26:28.701Z,1.73
2019-04-26T09:27:28.598Z,1.86
2019-04-26T09:28:28.611Z,1.91
2019-04-26T09:29:30.446Z,2.21
2019-04-26T09:30:34.124Z,2.18
2019-04-26T09:31:28.622Z,2.20
2019-04-26T09:32:29.425Z,2.09
2019-04-26T09:33:31.770Z,2.00
2019-04-26T09:34:28.642Z,2.03
2019-04-26T09:35:28.656Z,2.06
2019-04-26T09:36:28.657Z,2.18
2019-04-26T09:37:28.666Z,2.00
2019-04-26T09:38:28.671Z,2.00
2019-04-26T09:39:28.678Z,2.00
2019-04-26T09:40:28.682Z,1.99
2019-04-26T09:41:30.827Z,2.03
2019-04-26T09:42:28.696Z,2.18
2019-04-26T09:43:28.707Z,2.24
2019-04-26T09:44:28.711Z,2.24
2019-04-26T09:45:28.720Z,2.43
2019-04-26T09:46:28.730Z,2.60
2019-04-26T09:47:28.736Z,2.63
2019-04-26T09:48:28.739Z,2.63
2019-04-26T09:49:28.752Z,2.63
2019-04-26T09:50:28.751Z,2.63
2019-04-26T09:51:28.759Z,2.66
2019-04-26T09:52:28.769Z,2.41
2019-04-26T09:53:28.780Z,1.95
2019-04-26T09:54:28.784Z,1.68
2019-04-26T09:55:35.146Z,1.54
2019-04-26T09:56:28.796Z,1.47
2019-04-26T09:57:28.803Z,1.36
2019-04-26T09:58:30.689Z,1.14
2019-04-26T09:59:28.820Z,1.06
2019-04-26T10:00:28.829Z,0.83
2019-04-26T10:01:28.837Z,0.61
2019-04-26T10:02:29.550Z,0.49
2019-04-26T10:03:28.846Z,0.49
2019-04-26T10:04:28.853Z,0.57
2019-04-26T10:05:28.873Z,0.55
2019-04-26T10:06:29.658Z,0.58
2019-04-26T10:07:28.873Z,0.47
2019-04-26T10:08:28.885Z,0.49
2019-04-26T10:09:30.870Z,0.50
2019-04-26T10:10:30.884Z,0.29
2019-04-26T10:11:28.905Z,0.41
2019-04-26T10:12:28.912Z,0.33
2019-04-26T10:13:28.920Z,0.36
2019-04-26T10:14:28.925Z,0.44
2019-04-26T10:15:28.941Z,0.53
2019-04-26T10:16:28.944Z,0.62
2019-04-26T10:17:28.944Z,0.60
2019-04-26T10:18:28.950Z,0.76
2019-04-26T10:19:31.793Z,1.02
2019-04-26T10:20:28.962Z,1.20
2019-04-26T10:21:28.970Z,1.33
2019-04-26T10:22:28.973Z,1.32
2019-04-26T10:23:28.979Z,1.26
2019-04-26T10:24:28.986Z,1.12
2019-04-26T10:25:28.994Z,1.20
2019-04-26T10:26:29.905Z,1.37
2019-04-26T10:27:29.010Z,1.50
2019-04-26T10:28:29.020Z,1.33
2019-04-26T10:29:29.018Z,1.14
2019-04-26T10:30:29.028Z,1.09
2019-04-26T10:31:29.033Z,1.29
2019-04-26T10:32:29.039Z,1.47
2019-04-26T10:33:32.648Z,1.62
2019-04-26T10:34:29.056Z,1.70
2019-04-26T10:35:29.061Z,1.69
2019-04-26T10:36:30.149Z,1.40
2019-04-26T10:37:38.869Z,1.34
2019-04-26T10:38:29.083Z,1.27
2019-04-26T10:39:32.542Z,1.15
2019-04-26T10:40:35.341Z,1.22
2019-04-26T10:41:29.107Z,1.11
2019-04-26T10:42:29.114Z,0.93
2019-04-26T10:43:29.475Z,1.12
2019-04-26T10:44:29.126Z,1.33
2019-04-26T10:45:29.128Z,1.37
2019-04-26T10:46:29.513Z,1.40
2019-04-26T10:47:29.153Z,1.30
2019-04-26T10:48:29.150Z,1.23
2019-04-26T10:49:29.152Z,1.30
2019-04-26T10:50:33.049Z,1.34
2019-04-26T10:51:29.168Z,1.51
2019-04-26T10:52:29.172Z,1.60
2019-04-26T10:53:30.003Z,1.62
2019-04-26T10:54:29.188Z,1.77
2019-04-26T10:55:29.196Z,1.69
2019-04-26T10:56:29.205Z,1.86
2019-04-26T10:57:29.211Z,1.80
2019-04-26T10:58:31.989Z,1.55
2019-04-26T10:59:31.681Z,1.80
2019-04-26T11:00:29.224Z,2.03
2019-04-26T11:01:29.236Z,2.24
2019-04-26T11:02:29.240Z,2.43
2019-04-26T11:03:29.248Z,2.69
2019-04-26T11:04:29.253Z,2.97
2019-04-26T11:05:29.262Z,3.14
2019-04-26T11:06:29.287Z,2.82
2019-04-26T11:07:29.272Z,3.05
2019-04-26T11:08:29.280Z,3.17
2019-04-26T11:09:29.290Z,3.45
2019-04-26T11:10:29.293Z,3.62
2019-04-26T11:11:29.305Z,3.73
2019-04-26T11:12:29.314Z,4.11
2019-04-26T11:13:29.321Z,4.44
2019-04-26T11:14:29.323Z,4.69
2019-04-26T11:15:32.784Z,5.07
2019-04-26T11:16:29.339Z,5.30
2019-04-26T11:17:29.346Z,5.48
2019-04-26T11:18:29.356Z,5.43
2019-04-26T11:19:31.968Z,4.94
2019-04-26T11:20:29.371Z,4.92
2019-04-26T11:21:29.384Z,4.88
2019-04-26T11:22:33.149Z,4.63
2019-04-26T11:23:29.395Z,4.89
2019-04-26T11:24:29.408Z,4.91
2019-04-26T11:25:29.539Z,5.04
2019-04-26T11:26:31.025Z,5.03
2019-04-26T11:27:29.437Z,5.13
2019-04-26T11:28:29.443Z,5.42
2019-04-26T11:29:30.236Z,5.82
2019-04-26T11:30:29.458Z,6.27
2019-04-26T11:31:29.471Z,6.64
2019-04-26T11:32:29.481Z,6.59
2019-04-26T11:33:29.493Z,6.25
2019-04-26T11:34:29.599Z,6.34
2019-04-26T11:35:33.043Z,6.79
2019-04-26T11:36:29.519Z,7.37
2019-04-26T11:37:29.539Z,7.37
2019-04-26T11:38:31.374Z,6.99
2019-04-26T11:39:29.549Z,6.11
2019-04-26T11:40:29.620Z,5.82
2019-04-26T11:41:29.566Z,6.06
2019-04-26T11:42:29.576Z,5.93
2019-04-26T11:43:29.586Z,5.15
2019-04-26T11:44:29.602Z,4.89
2019-04-26T11:45:29.639Z,5.24
2019-04-26T11:46:30.318Z,5.72
2019-04-26T11:47:29.633Z,5.65
2019-04-26T11:48:30.651Z,5.53
2019-04-26T11:49:29.653Z,5.10
2019-04-26T11:50:29.663Z,5.63
2019-04-26T11:51:29.673Z,5.90
2019-04-26T11:52:32.154Z,6.27
2019-04-26T11:53:29.700Z,6.62
2019-04-26T11:54:29.709Z,7.10
2019-04-26T11:55:31.429Z,7.46
2019-04-26T11:56:29.734Z,7.57
2019-04-26T11:57:29.745Z,7.30
2019-04-26T11:58:29.755Z,7.07
2019-04-26T11:59:30.639Z,6.31
2019-04-26T12:00:29.798Z,6.03
2019-04-26T12:01:29.797Z,5.65
2019-04-26T12:02:29.800Z,5.30
2019-04-26T12:03:29.812Z,4.85
2019-04-26T12:04:29.827Z,4.78
2019-04-26T12:05:29.838Z,4.32
2019-04-26T12:06:29.846Z,4.22
2019-04-26T12:07:29.863Z,4.65
2019-04-26T12:08:29.873Z,5.20
2019-04-26T12:09:29.887Z,5.17
2019-04-26T12:10:29.905Z,5.60
2019-04-26T12:11:34.134Z,5.30
2019-04-26T12:12:29.919Z,5.04
2019-04-26T12:13:29.955Z,5.02
2019-04-26T12:14:33.475Z,5.35
2019-04-26T12:15:30.737Z,5.17
2019-04-26T12:16:29.969Z,5.86
2019-04-26T12:17:31.224Z,6.51
2019-04-26T12:18:30.124Z,7.32
2019-04-26T12:19:30.004Z,8.15
2019-04-26T12:20:30.016Z,8.56
2019-04-26T12:21:30.492Z,7.60
2019-04-26T12:22:30.040Z,6.98
2019-04-26T12:23:30.051Z,7.40
2019-04-26T12:24:34.312Z,7.60
2019-04-26T12:25:31.176Z,7.10
2019-04-26T12:26:42.151Z,6.49
2019-04-26T12:27:30.786Z,6.81
2019-04-26T12:28:30.109Z,6.89
2019-04-26T12:29:30.131Z,6.76
2019-04-26T12:30:30.143Z,6.28
2019-04-26T12:31:30.152Z,5.20
2019-04-26T12:32:30.178Z,4.40
2019-04-26T12:33:30.173Z,4.92
2019-04-26T12:34:30.189Z,5.78
2019-04-26T12:35:30.263Z,5.81
2019-04-26T12:36:30.220Z,5.64
2019-04-26T12:37:30.223Z,5.64
2019-04-26T12:38:30.238Z,5.90
2019-04-26T12:39:32.381Z,6.25
2019-04-26T12:40:30.264Z,6.01
2019-04-26T12:41:40.496Z,5.97
2019-04-26T12:42:30.287Z,5.63
2019-04-26T12:43:30.302Z,5.35
2019-04-26T12:44:32.152Z,5.42
2019-04-26T12:45:30.326Z,4.97
2019-04-26T12:46:31.937Z,5.25
2019-04-26T12:47:30.626Z,6.21
2019-04-26T12:48:30.364Z,7.23
2019-04-26T12:49:30.376Z,7.61
2019-04-26T12:50:36.399Z,8.41
2019-04-26T12:51:30.398Z,8.29
2019-04-26T12:52:30.415Z,7.42
2019-04-26T12:53:31.304Z,7.60
2019-04-26T12:54:30.440Z,6.55
2019-04-26T12:55:30.454Z,6.38
2019-04-26T12:56:31.304Z,6.37
2019-04-26T12:57:30.481Z,6.64
2019-04-26T12:58:30.498Z,6.70
2019-04-26T12:59:43.325Z,6.46
2019-04-26T13:00:33.022Z,6.34
2019-04-26T13:01:30.536Z,6.99
2019-04-26T13:02:30.560Z,7.21
2019-04-26T13:03:30.558Z,7.21
2019-04-26T13:04:36.317Z,7.67
2019-04-26T13:05:30.583Z,8.23
2019-04-26T13:06:31.921Z,8.41
2019-04-26T13:07:30.613Z,8.10
2019-04-26T13:08:30.632Z,7.40
2019-04-26T13:09:30.640Z,7.71
2019-04-26T13:10:31.370Z,7.21
2019-04-26T13:11:30.671Z,7.23
2019-04-26T13:12:30.784Z,7.77
2019-04-26T13:13:30.690Z,7.90
2019-04-26T13:14:30.705Z,7.75
2019-04-26T13:15:30.716Z,8.16
2019-04-26T13:16:30.736Z,7.60
2019-04-26T13:17:31.264Z,8.36